Szeged, Hungary
Current Conditions -  °F | °C
As of 7:15 AM on Sunday 21 Dec 2014 (Local Time) from LHUD Reporting Station
Clear Clear  
Wind Chill: 33°   Ceiling: Unl
Heat Index: 39°   Visibility: 6mi
Dew Point: 32°   Wind: 9mph
Humidity: 75%   Direction: 290°WNW
Pressure: 30.18"   Gusts: NA
Location:  46.26°N, 20.16°E
Report Text: LHUD 210515Z 29008KT CAVOK 04/00 Q1022
Loading
Personal Weather Stations






























Interactive Weather Map New forecast layout! Learn more

10-Day Weather Forecast

Advertisements
Track Severe Weather on mobile